sensor_id;sensor_type;location;lat;lon;timestamp;pressure;altitude;pressure_sealevel;temperature;humidity
71805;BME280;59654;52.216;5.616;2023-04-23T00:00:08;100565.53;;;7.19;100.00
71805;BME280;59654;52.216;5.616;2023-04-23T00:00:47;100569.94;;;7.19;100.00
71805;BME280;59654;52.216;5.616;2023-04-23T00:01:25;100569.94;;;7.19;100.00
71805;BME280;59654;52.216;5.616;2023-04-23T00:02:00;100569.97;;;7.17;100.00
71805;BME280;59654;52.216;5.616;2023-04-23T00:02:34;100569.97;;;7.17;100.00
71805;BME280;59654;52.216;5.616;2023-04-23T00:03:08;100567.31;;;7.17;100.00
71805;BME280;59654;52.216;5.616;2023-04-23T00:03:40;100574.38;;;7.16;100.00
71805;BME280;59654;52.216;5.616;2023-04-23T00:04:14;100565.56;;;7.16;100.00
71805;BME280;59654;52.216;5.616;2023-04-23T00:04:50;100569.97;;;7.17;100.00
71805;BME280;59654;52.216;5.616;2023-04-23T00:05:27;100572.59;;;7.19;100.00
71805;BME280;59654;52.216;5.616;2023-04-23T00:06:03;100565.56;;;7.16;100.00
71805;BME280;59654;52.216;5.616;2023-04-23T00:06:35;100567.31;;;7.17;100.00
71805;BME280;59654;52.216;5.616;2023-04-23T00:07:06;100563.75;;;7.18;100.00
71805;BME280;59654;52.216;5.616;2023-04-23T00:07:38;100562.88;;;7.17;100.00
71805;BME280;59654;52.216;5.616;2023-04-23T00:08:10;100561.13;;;7.16;100.00
71805;BME280;59654;52.216;5.616;2023-04-23T00:08:41;100559.34;;;7.17;100.00
71805;BME280;59654;52.216;5.616;2023-04-23T00:09:14;100557.63;;;7.16;100.00
71805;BME280;59654;52.216;5.616;2023-04-23T00:09:46;100566.44;;;7.16;100.00
71805;BME280;59654;52.216;5.616;2023-04-23T00:10:17;100559.34;;;7.17;100.00
71805;BME280;59654;52.216;5.616;2023-04-23T00:10:49;100556.69;;;7.19;100.00
71805;BME280;59654;52.216;5.616;2023-04-23T00:11:20;100560.25;;;7.16;100.00
71805;BME280;59654;52.216;5.616;2023-04-23T00:11:51;100562.00;;;7.17;100.00
71805;BME280;59654;52.216;5.616;2023-04-23T00:12:22;100558.56;;;7.13;100.00
71805;BME280;59654;52.216;5.616;2023-04-23T00:12:54;100561.22;;;7.13;100.00
71805;BME280;59654;52.216;5.616;2023-04-23T00:13:25;100557.69;;;7.13;100.00
71805;BME280;59654;52.216;5.616;2023-04-23T00:13:56;100562.16;;;7.11;100.00
71805;BME280;59654;52.216;5.616;2023-04-23T00:14:28;100562.22;;;7.09;100.00
71805;BME280;59654;52.216;5.616;2023-04-23T00:15:00;100560.44;;;7.10;100.00
71805;BME280;59654;52.216;5.616;2023-04-23T00:15:32;100558.69;;;7.09;100.00
71805;BME280;59654;52.216;5.616;2023-04-23T00:16:04;100559.72;;;7.05;100.00
71805;BME280;59654;52.216;5.616;2023-04-23T00:16:35;100551.75;;;7.05;100.00
71805;BME280;59654;52.216;5.616;2023-04-23T00:17:07;100557.84;;;7.07;100.00
71805;BME280;59654;52.216;5.616;2023-04-23T00:17:38;100560.63;;;7.04;100.00
71805;BME280;59654;52.216;5.616;2023-04-23T00:18:09;100560.69;;;7.01;100.00
71805;BME280;59654;52.216;5.616;2023-04-23T00:18:40;100557.19;;;7.00;100.00
71805;BME280;59654;52.216;5.616;2023-04-23T00:19:11;100564.31;;;6.98;100.00
71805;BME280;59654;52.216;5.616;2023-04-23T00:19:42;100569.56;;;7.00;100.00
71805;BME280;59654;52.216;5.616;2023-04-23T00:20:16;100560.78;;;6.98;100.00
71805;BME280;59654;52.216;5.616;2023-04-23T00:20:48;100563.41;;;6.99;100.00
71805;BME280;59654;52.216;5.616;2023-04-23T00:21:20;100566.91;;;7.00;100.00
71805;BME280;59654;52.216;5.616;2023-04-23T00:21:50;100564.25;;;7.00;100.00
71805;BME280;59654;52.216;5.616;2023-04-23T00:22:21;100564.31;;;6.98;100.00
71805;BME280;59654;52.216;5.616;2023-04-23T00:22:52;100567.00;;;6.97;100.00
71805;BME280;59654;52.216;5.616;2023-04-23T00:23:23;100567.94;;;6.94;100.00
71805;BME280;59654;52.216;5.616;2023-04-23T00:23:54;100576.84;;;6.92;100.00
71805;BME280;59654;52.216;5.616;2023-04-23T00:24:25;100562.72;;;6.91;100.00
71805;BME280;59654;52.216;5.616;2023-04-23T00:24:56;100568.97;;;6.90;100.00
71805;BME280;59654;52.216;5.616;2023-04-23T00:25:27;100568.09;;;6.90;100.00
71805;BME280;59654;52.216;5.616;2023-04-23T00:25:58;100569.00;;;6.89;100.00
71805;BME280;59654;52.216;5.616;2023-04-23T00:26:28;100569.00;;;6.89;100.00
71805;BME280;59654;52.216;5.616;2023-04-23T00:26:59;100571.66;;;6.89;100.00
71805;BME280;59654;52.216;5.616;2023-04-23T00:27:31;100569.03;;;6.87;100.00
71805;BME280;59654;52.216;5.616;2023-04-23T00:28:03;100567.34;;;6.85;100.00
71805;BME280;59654;52.216;5.616;2023-04-23T00:28:34;100570.00;;;6.85;100.00
71805;BME280;59654;52.216;5.616;2023-04-23T00:29:05;100568.25;;;6.83;100.00
71805;BME280;59654;52.216;5.616;2023-04-23T00:29:36;100563.03;;;6.80;100.00
71805;BME280;59654;52.216;5.616;2023-04-23T00:30:07;100564.88;;;6.77;100.00
71805;BME280;59654;52.216;5.616;2023-04-23T00:30:39;100568.44;;;6.76;100.00
71805;BME280;59654;52.216;5.616;2023-04-23T00:31:10;100569.47;;;6.72;100.00
71805;BME280;59654;52.216;5.616;2023-04-23T00:31:40;100560.72;;;6.68;100.00
71805;BME280;59654;52.216;5.616;2023-04-23T00:32:12;100564.31;;;6.66;100.00
71805;BME280;59654;52.216;5.616;2023-04-23T00:32:44;100561.69;;;6.64;100.00
71805;BME280;59654;52.216;5.616;2023-04-23T00:33:15;100564.38;;;6.63;100.00
71805;BME280;59654;52.216;5.616;2023-04-23T00:33:46;100563.53;;;6.62;100.00
71805;BME280;59654;52.216;5.616;2023-04-23T00:34:17;100558.22;;;6.62;100.00
71805;BME280;59654;52.216;5.616;2023-04-23T00:34:48;100564.38;;;6.63;100.00
71805;BME280;59654;52.216;5.616;2023-04-23T00:35:19;100561.69;;;6.64;100.00
71805;BME280;59654;52.216;5.616;2023-04-23T00:35:50;100558.16;;;6.65;100.00
71805;BME280;59654;52.216;5.616;2023-04-23T00:36:21;100552.88;;;6.64;100.00
71805;BME280;59654;52.216;5.616;2023-04-23T00:36:53;100556.44;;;6.63;100.00
71805;BME280;59654;52.216;5.616;2023-04-23T00:37:24;100559.13;;;6.61;100.00
71805;BME280;59654;52.216;5.616;2023-04-23T00:37:55;100557.44;;;6.59;100.00
71805;BME280;59654;52.216;5.616;2023-04-23T00:38:26;100553.00;;;6.59;100.00
71805;BME280;59654;52.216;5.616;2023-04-23T00:38:57;100549.56;;;6.57;100.00
71805;BME280;59654;52.216;5.616;2023-04-23T00:39:28;100556.66;;;6.55;100.00
71805;BME280;59654;52.216;5.616;2023-04-23T00:39:59;100547.88;;;6.53;100.00
71805;BME280;59654;52.216;5.616;2023-04-23T00:40:30;100547.88;;;6.53;100.00
71805;BME280;59654;52.216;5.616;2023-04-23T00:41:01;100545.28;;;6.52;100.00
71805;BME280;59654;52.216;5.616;2023-04-23T00:41:33;100545.34;;;6.48;100.00
71805;BME280;59654;52.216;5.616;2023-04-23T00:42:04;100549.78;;;6.48;100.00
71805;BME280;59654;52.216;5.616;2023-04-23T00:42:41;100551.59;;;6.46;100.00
71805;BME280;59654;52.216;5.616;2023-04-23T00:43:14;100540.97;;;6.47;100.00
71805;BME280;59654;52.216;5.616;2023-04-23T00:43:45;100548.94;;;6.46;100.00
71805;BME280;59654;52.216;5.616;2023-04-23T00:44:19;100544.63;;;6.42;100.00
71805;BME280;59654;52.216;5.616;2023-04-23T00:44:51;100539.44;;;6.39;100.00
71805;BME280;59654;52.216;5.616;2023-04-23T00:45:22;100543.00;;;6.38;100.00
71805;BME280;59654;52.216;5.616;2023-04-23T00:45:53;100542.13;;;6.37;100.00
71805;BME280;59654;52.216;5.616;2023-04-23T00:46:24;100543.88;;;6.38;100.00
71805;BME280;59654;52.216;5.616;2023-04-23T00:46:56;100537.69;;;6.38;100.00
71805;BME280;59654;52.216;5.616;2023-04-23T00:47:28;100541.22;;;6.38;100.00
71805;BME280;59654;52.216;5.616;2023-04-23T00:48:01;100540.31;;;6.39;100.00
71805;BME280;59654;52.216;5.616;2023-04-23T00:48:33;100542.13;;;6.37;100.00
71805;BME280;59654;52.216;5.616;2023-04-23T00:49:04;100539.50;;;6.36;100.00
71805;BME280;59654;52.216;5.616;2023-04-23T00:49:36;100541.25;;;6.37;100.00
71805;BME280;59654;52.216;5.616;2023-04-23T00:50:08;100536.91;;;6.34;100.00
71805;BME280;59654;52.216;5.616;2023-04-23T00:50:41;100531.59;;;6.34;100.00
71805;BME280;59654;52.216;5.616;2023-04-23T00:51:12;100526.34;;;6.33;100.00
71805;BME280;59654;52.216;5.616;2023-04-23T00:51:43;100535.22;;;6.30;100.00
71805;BME280;59654;52.216;5.616;2023-04-23T00:52:14;100536.09;;;6.31;100.00
71805;BME280;59654;52.216;5.616;2023-04-23T00:52:45;100535.25;;;6.29;100.00
71805;BME280;59654;52.216;5.616;2023-04-23T00:53:16;100534.41;;;6.28;100.00
71805;BME280;59654;52.216;5.616;2023-04-23T00:53:47;100535.34;;;6.26;100.00
71805;BME280;59654;52.216;5.616;2023-04-23T00:54:18;100535.41;;;6.24;100.00
71805;BME280;59654;52.216;5.616;2023-04-23T00:54:50;100532.78;;;6.23;100.00
71805;BME280;59654;52.216;5.616;2023-04-23T00:55:20;100531.97;;;6.21;100.00
71805;BME280;59654;52.216;5.616;2023-04-23T00:55:52;100529.41;;;6.16;100.00
71805;BME280;59654;52.216;5.616;2023-04-23T00:56:24;100531.19;;;6.16;100.00
71805;BME280;59654;52.216;5.616;2023-04-23T00:56:56;100530.31;;;6.15;100.00
71805;BME280;59654;52.216;5.616;2023-04-23T00:57:28;100531.28;;;6.12;100.00
71805;BME280;59654;52.216;5.616;2023-04-23T00:57:59;100532.22;;;6.10;100.00
71805;BME280;59654;52.216;5.616;2023-04-23T00:58:31;100534.94;;;6.08;100.00
71805;BME280;59654;52.216;5.616;2023-04-23T00:59:03;100534.06;;;6.08;100.00
71805;BME280;59654;52.216;5.616;2023-04-23T00:59:34;100532.31;;;6.07;100.00
71805;BME280;59654;52.216;5.616;2023-04-23T01:00:06;100527.09;;;6.04;100.00
71805;BME280;59654;52.216;5.616;2023-04-23T01:00:44;100523.53;;;6.05;100.00
71805;BME280;59654;52.216;5.616;2023-04-23T01:01:16;100525.34;;;6.03;100.00
71805;BME280;59654;52.216;5.616;2023-04-23T01:01:51;100528.03;;;6.01;100.00
71805;BME280;59654;52.216;5.616;2023-04-23T01:02:24;100525.41;;;6.00;100.00
71805;BME280;59654;52.216;5.616;2023-04-23T01:02:57;100528.97;;;5.99;100.00
71805;BME280;59654;52.216;5.616;2023-04-23T01:03:30;100523.75;;;5.96;100.00
71805;BME280;59654;52.216;5.616;2023-04-23T01:04:02;100525.53;;;5.95;100.00
71805;BME280;59654;52.216;5.616;2023-04-23T01:04:35;100527.25;;;5.96;100.00
71805;BME280;59654;52.216;5.616;2023-04-23T01:05:09;100525.63;;;5.92;100.00
71805;BME280;59654;52.216;5.616;2023-04-23T01:05:41;100528.28;;;5.92;100.00
71805;BME280;59654;52.216;5.616;2023-04-23T01:06:12;100530.84;;;5.94;100.00
71805;BME280;59654;52.216;5.616;2023-04-23T01:06:44;100530.91;;;5.92;100.00
71805;BME280;59654;52.216;5.616;2023-04-23T01:07:19;100527.31;;;5.93;100.00
71805;BME280;59654;52.216;5.616;2023-04-23T01:07:51;100528.28;;;5.92;100.00
71805;BME280;59654;52.216;5.616;2023-04-23T01:08:23;100530.03;;;5.92;100.00
71805;BME280;59654;52.216;5.616;2023-04-23T01:08:56;100523.88;;;5.91;100.00
71805;BME280;59654;52.216;5.616;2023-04-23T01:09:27;100527.47;;;5.89;100.00
71805;BME280;59654;52.216;5.616;2023-04-23T01:09:59;100533.63;;;5.89;100.00
71805;BME280;59654;52.216;5.616;2023-04-23T01:10:30;100529.22;;;5.90;100.00
71805;BME280;59654;52.216;5.616;2023-04-23T01:11:02;100522.09;;;5.92;100.00
71805;BME280;59654;52.216;5.616;2023-04-23T01:11:36;100528.28;;;5.92;100.00
71805;BME280;59654;52.216;5.616;2023-04-23T01:12:09;100519.38;;;5.93;100.00
71805;BME280;59654;52.216;5.616;2023-04-23T01:12:40;100525.66;;;5.91;100.00
71805;BME280;59654;52.216;5.616;2023-04-23T01:13:14;100526.56;;;5.90;100.00
71805;BME280;59654;52.216;5.616;2023-04-23T01:13:45;100521.34;;;5.87;100.00
71805;BME280;59654;52.216;5.616;2023-04-23T01:14:16;100529.34;;;5.84;100.00
71805;BME280;59654;52.216;5.616;2023-04-23T01:14:47;100524.00;;;5.85;100.00
71805;BME280;59654;52.216;5.616;2023-04-23T01:15:18;100522.28;;;5.84;100.00
71805;BME280;59654;52.216;5.616;2023-04-23T01:15:49;100526.75;;;5.81;100.00
71805;BME280;59654;52.216;5.616;2023-04-23T01:16:20;100526.75;;;5.81;100.00
71805;BME280;59654;52.216;5.616;2023-04-23T01:16:51;100518.81;;;5.81;100.00
71805;BME280;59654;52.216;5.616;2023-04-23T01:17:22;100532.03;;;5.82;100.00
71805;BME280;59654;52.216;5.616;2023-04-23T01:17:53;100518.81;;;5.81;100.00
71805;BME280;59654;52.216;5.616;2023-04-23T01:18:27;100517.97;;;5.80;100.00
71805;BME280;59654;52.216;5.616;2023-04-23T01:18:59;100523.28;;;5.78;100.00
71805;BME280;59654;52.216;5.616;2023-04-23T01:19:30;100523.31;;;5.77;100.00
71805;BME280;59654;52.216;5.616;2023-04-23T01:20:01;100521.59;;;5.76;100.00
71805;BME280;59654;52.216;5.616;2023-04-23T01:20:33;100518.09;;;5.75;100.00
71805;BME280;59654;52.216;5.616;2023-04-23T01:21:04;100517.22;;;5.75;100.00
71805;BME280;59654;52.216;5.616;2023-04-23T01:21:38;100517.25;;;5.73;100.00
71805;BME280;59654;52.216;5.616;2023-04-23T01:22:13;100516.38;;;5.73;100.00
71805;BME280;59654;52.216;5.616;2023-04-23T01:22:45;100520.75;;;5.74;100.00
71805;BME280;59654;52.216;5.616;2023-04-23T01:23:16;100516.38;;;5.73;100.00
71805;BME280;59654;52.216;5.616;2023-04-23T01:23:48;100516.38;;;5.73;100.00
71805;BME280;59654;52.216;5.616;2023-04-23T01:24:19;100516.44;;;5.70;100.00
71805;BME280;59654;52.216;5.616;2023-04-23T01:24:51;100519.03;;;5.73;100.00
71805;BME280;59654;52.216;5.616;2023-04-23T01:25:22;100511.97;;;5.73;100.00
71805;BME280;59654;52.216;5.616;2023-04-23T01:25:53;100513.69;;;5.74;100.00
71805;BME280;59654;52.216;5.616;2023-04-23T01:26:24;100512.72;;;5.77;100.00
71805;BME280;59654;52.216;5.616;2023-04-23T01:26:56;100519.75;;;5.78;100.00
71805;BME280;59654;52.216;5.616;2023-04-23T01:27:28;100517.09;;;5.80;100.00
71805;BME280;59654;52.216;5.616;2023-04-23T01:28:00;100515.31;;;5.80;100.00
71805;BME280;59654;52.216;5.616;2023-04-23T01:28:31;100515.28;;;5.82;100.00
71805;BME280;59654;52.216;5.616;2023-04-23T01:29:02;100510.88;;;5.81;100.00
71805;BME280;59654;52.216;5.616;2023-04-23T01:29:34;100511.78;;;5.80;100.00
71805;BME280;59654;52.216;5.616;2023-04-23T01:30:06;100510.09;;;5.77;100.00
71805;BME280;59654;52.216;5.616;2023-04-23T01:30:41;100512.72;;;5.77;100.00
71805;BME280;59654;52.216;5.616;2023-04-23T01:31:13;100506.63;;;5.75;100.00
71805;BME280;59654;52.216;5.616;2023-04-23T01:31:47;100511.03;;;5.76;100.00
71805;BME280;59654;52.216;5.616;2023-04-23T01:32:19;100504.78;;;5.77;100.00
71805;BME280;59654;52.216;5.616;2023-04-23T01:32:50;100504.88;;;5.75;100.00
71805;BME280;59654;52.216;5.616;2023-04-23T01:33:23;100504.78;;;5.77;100.00
71805;BME280;59654;52.216;5.616;2023-04-23T01:33:55;100510.16;;;5.75;100.00
71805;BME280;59654;52.216;5.616;2023-04-23T01:34:25;100511.91;;;5.76;100.00
71805;BME280;59654;52.216;5.616;2023-04-23T01:34:57;100508.31;;;5.77;100.00
71805;BME280;59654;52.216;5.616;2023-04-23T01:35:29;100509.16;;;5.80;100.00
71805;BME280;59654;52.216;5.616;2023-04-23T01:36:01;100507.38;;;5.80;100.00
71805;BME280;59654;52.216;5.616;2023-04-23T01:36:34;100502.94;;;5.81;100.00
71805;BME280;59654;52.216;5.616;2023-04-23T01:37:06;100509.09;;;5.83;100.00
71805;BME280;59654;52.216;5.616;2023-04-23T01:37:37;100508.16;;;5.85;100.00
71805;BME280;59654;52.216;5.616;2023-04-23T01:38:10;100509.00;;;5.86;100.00
71805;BME280;59654;52.216;5.616;2023-04-23T01:38:41;100499.25;;;5.88;100.00
71805;BME280;59654;52.216;5.616;2023-04-23T01:39:12;100500.16;;;5.87;100.00
71805;BME280;59654;52.216;5.616;2023-04-23T01:39:43;100501.00;;;5.89;100.00
71805;BME280;59654;52.216;5.616;2023-04-23T01:40:14;100495.69;;;5.90;100.00
71805;BME280;59654;52.216;5.616;2023-04-23T01:40:45;100495.69;;;5.90;100.00
71805;BME280;59654;52.216;5.616;2023-04-23T01:41:17;100494.81;;;5.90;100.00
71805;BME280;59654;52.216;5.616;2023-04-23T01:41:49;100497.50;;;5.88;100.00
71805;BME280;59654;52.216;5.616;2023-04-23T01:42:21;100492.19;;;5.88;100.00
71805;BME280;59654;52.216;5.616;2023-04-23T01:42:53;100495.72;;;5.89;100.00
71805;BME280;59654;52.216;5.616;2023-04-23T01:43:25;100495.72;;;5.89;100.00
71805;BME280;59654;52.216;5.616;2023-04-23T01:43:56;100497.50;;;5.88;100.00
71805;BME280;59654;52.216;5.616;2023-04-23T01:44:28;100491.25;;;5.91;100.00
71805;BME280;59654;52.216;5.616;2023-04-23T01:45:01;100495.72;;;5.89;100.00
71805;BME280;59654;52.216;5.616;2023-04-23T01:45:32;100493.03;;;5.90;100.00
71805;BME280;59654;52.216;5.616;2023-04-23T01:46:03;100486.00;;;5.89;100.00
71805;BME280;59654;52.216;5.616;2023-04-23T01:46:34;100492.19;;;5.88;100.00
71805;BME280;59654;52.216;5.616;2023-04-23T01:47:07;100492.19;;;5.88;100.00
71805;BME280;59654;52.216;5.616;2023-04-23T01:47:40;100497.50;;;5.88;100.00
71805;BME280;59654;52.216;5.616;2023-04-23T01:48:11;100482.56;;;5.86;100.00
71805;BME280;59654;52.216;5.616;2023-04-23T01:48:42;100482.59;;;5.84;100.00
71805;BME280;59654;52.216;5.616;2023-04-23T01:49:13;100487.00;;;5.84;100.00
71805;BME280;59654;52.216;5.616;2023-04-23T01:49:44;100482.59;;;5.84;100.00
71805;BME280;59654;52.216;5.616;2023-04-23T01:50:15;100488.75;;;5.85;100.00
71805;BME280;59654;52.216;5.616;2023-04-23T01:50:47;100484.41;;;5.82;100.00
71805;BME280;59654;52.216;5.616;2023-04-23T01:51:18;100488.81;;;5.82;100.00
71805;BME280;59654;52.216;5.616;2023-04-23T01:51:49;100488.81;;;5.82;100.00
71805;BME280;59654;52.216;5.616;2023-04-23T01:52:22;100491.44;;;5.83;100.00
71805;BME280;59654;52.216;5.616;2023-04-23T01:52:52;100487.88;;;5.84;100.00
71805;BME280;59654;52.216;5.616;2023-04-23T01:53:23;100485.16;;;5.87;100.00
71805;BME280;59654;52.216;5.616;2023-04-23T01:53:54;100489.56;;;5.88;100.00
71805;BME280;59654;52.216;5.616;2023-04-23T01:54:26;100484.25;;;5.88;100.00
71805;BME280;59654;52.216;5.616;2023-04-23T01:54:56;100485.13;;;5.89;100.00
71805;BME280;59654;52.216;5.616;2023-04-23T01:55:27;100487.78;;;5.89;100.00
71805;BME280;59654;52.216;5.616;2023-04-23T01:55:59;100487.81;;;5.87;100.00
71805;BME280;59654;52.216;5.616;2023-04-23T01:56:30;100491.38;;;5.86;100.00
71805;BME280;59654;52.216;5.616;2023-04-23T01:57:04;100481.63;;;5.88;100.00
71805;BME280;59654;52.216;5.616;2023-04-23T01:57:36;100486.91;;;5.88;100.00
71805;BME280;59654;52.216;5.616;2023-04-23T01:58:07;100478.13;;;5.86;100.00
71805;BME280;59654;52.216;5.616;2023-04-23T01:58:38;100485.19;;;5.86;100.00
71805;BME280;59654;52.216;5.616;2023-04-23T01:59:09;100483.47;;;5.85;100.00
71805;BME280;59654;52.216;5.616;2023-04-23T01:59:41;100475.56;;;5.83;100.00
71805;BME280;59654;52.216;5.616;2023-04-23T02:00:13;100480.91;;;5.80;100.00
71805;BME280;59654;52.216;5.616;2023-04-23T02:00:44;100480.91;;;5.80;100.00
71805;BME280;59654;52.216;5.616;2023-04-23T02:01:16;100480.06;;;5.80;100.00
71805;BME280;59654;52.216;5.616;2023-04-23T02:01:48;100474.75;;;5.80;100.00
71805;BME280;59654;52.216;5.616;2023-04-23T02:02:20;100479.16;;;5.81;100.00
71805;BME280;59654;52.216;5.616;2023-04-23T02:02:51;100478.28;;;5.80;100.00
71805;BME280;59654;52.216;5.616;2023-04-23T02:03:23;100482.69;;;5.80;100.00
71805;BME280;59654;52.216;5.616;2023-04-23T02:03:54;100480.91;;;5.80;100.00
71805;BME280;59654;52.216;5.616;2023-04-23T02:04:26;100488.03;;;5.78;100.00
71805;BME280;59654;52.216;5.616;2023-04-23T02:05:00;100474.78;;;5.78;100.00
71805;BME280;59654;52.216;5.616;2023-04-23T02:05:34;100476.56;;;5.77;100.00
71805;BME280;59654;52.216;5.616;2023-04-23T02:06:06;100480.91;;;5.80;100.00
71805;BME280;59654;52.216;5.616;2023-04-23T02:06:37;100485.34;;;5.80;100.00
71805;BME280;59654;52.216;5.616;2023-04-23T02:07:08;100478.25;;;5.82;100.00
71805;BME280;59654;52.216;5.616;2023-04-23T02:07:40;100485.28;;;5.83;100.00
71805;BME280;59654;52.216;5.616;2023-04-23T02:08:11;100482.63;;;5.83;100.00
71805;BME280;59654;52.216;5.616;2023-04-23T02:08:42;100474.69;;;5.83;100.00
71805;BME280;59654;52.216;5.616;2023-04-23T02:09:13;100479.13;;;5.82;100.00
71805;BME280;59654;52.216;5.616;2023-04-23T02:09:44;100477.38;;;5.81;100.00
71805;BME280;59654;52.216;5.616;2023-04-23T02:10:17;100473.84;;;5.81;100.00
71805;BME280;59654;52.216;5.616;2023-04-23T02:10:48;100480.06;;;5.80;100.00
71805;BME280;59654;52.216;5.616;2023-04-23T02:11:18;100474.75;;;5.80;100.00
71805;BME280;59654;52.216;5.616;2023-04-23T02:11:49;100484.44;;;5.81;100.00
71805;BME280;59654;52.216;5.616;2023-04-23T02:12:20;100474.72;;;5.81;100.00
71805;BME280;59654;52.216;5.616;2023-04-23T02:12:51;100475.59;;;5.82;100.00
71805;BME280;59654;52.216;5.616;2023-04-23T02:13:22;100477.34;;;5.83;100.00
71805;BME280;59654;52.216;5.616;2023-04-23T02:13:53;100468.50;;;5.84;100.00
71805;BME280;59654;52.216;5.616;2023-04-23T02:14:24;100476.44;;;5.84;100.00
71805;BME280;59654;52.216;5.616;2023-04-23T02:14:55;100469.41;;;5.83;100.00
71805;BME280;59654;52.216;5.616;2023-04-23T02:15:25;100464.16;;;5.81;100.00
71805;BME280;59654;52.216;5.616;2023-04-23T02:15:57;100465.00;;;5.82;100.00
71805;BME280;59654;52.216;5.616;2023-04-23T02:16:28;100466.72;;;5.84;100.00
71805;BME280;59654;52.216;5.616;2023-04-23T02:17:00;100467.56;;;5.86;100.00
71805;BME280;59654;52.216;5.616;2023-04-23T02:17:32;100471.03;;;5.88;100.00
71805;BME280;59654;52.216;5.616;2023-04-23T02:18:03;100464.84;;;5.89;100.00
71805;BME280;59654;52.216;5.616;2023-04-23T02:18:34;100465.72;;;5.90;100.00
71805;BME280;59654;52.216;5.616;2023-04-23T02:19:05;100467.47;;;5.89;100.00
71805;BME280;59654;52.216;5.616;2023-04-23T02:19:36;100469.22;;;5.90;100.00
71805;BME280;59654;52.216;5.616;2023-04-23T02:20:09;100452.44;;;5.91;100.00
71805;BME280;59654;52.216;5.616;2023-04-23T02:20:40;100457.69;;;5.93;100.00
71805;BME280;59654;52.216;5.616;2023-04-23T02:21:11;100462.00;;;5.95;100.00
71805;BME280;59654;52.216;5.616;2023-04-23T02:21:42;100462.00;;;5.95;100.00
71805;BME280;59654;52.216;5.616;2023-04-23T02:22:14;100460.19;;;5.97;100.00
71805;BME280;59654;52.216;5.616;2023-04-23T02:22:45;100461.06;;;5.98;100.00
71805;BME280;59654;52.216;5.616;2023-04-23T02:23:16;100461.03;;;5.99;100.00
71805;BME280;59654;52.216;5.616;2023-04-23T02:23:47;100455.78;;;5.98;100.00
71805;BME280;59654;52.216;5.616;2023-04-23T02:24:18;100468.13;;;5.97;100.00
71805;BME280;59654;52.216;5.616;2023-04-23T02:24:50;100461.94;;;5.98;100.00
71805;BME280;59654;52.216;5.616;2023-04-23T02:25:22;100457.53;;;5.99;100.00
71805;BME280;59654;52.216;5.616;2023-04-23T02:25:53;100462.84;;;5.97;100.00
71805;BME280;59654;52.216;5.616;2023-04-23T02:26:23;100461.03;;;5.99;100.00
71805;BME280;59654;52.216;5.616;2023-04-23T02:26:54;100456.69;;;5.97;100.00
71805;BME280;59654;52.216;5.616;2023-04-23T02:27:27;100461.13;;;5.96;100.00
71805;BME280;59654;52.216;5.616;2023-04-23T02:27:58;100455.81;;;5.96;100.00
71805;BME280;59654;52.216;5.616;2023-04-23T02:28:35;100455.81;;;5.96;100.00
71805;BME280;59654;52.216;5.616;2023-04-23T02:29:06;100458.38;;;5.99;100.00
71805;BME280;59654;52.216;5.616;2023-04-23T02:29:37;100453.97;;;6.00;100.00
71805;BME280;59654;52.216;5.616;2023-04-23T02:30:10;100456.56;;;6.01;100.00
71805;BME280;59654;52.216;5.616;2023-04-23T02:30:41;100460.09;;;6.02;100.00
71805;BME280;59654;52.216;5.616;2023-04-23T02:31:15;100460.97;;;6.02;100.00
71805;BME280;59654;52.216;5.616;2023-04-23T02:31:47;100464.44;;;6.04;100.00
71805;BME280;59654;52.216;5.616;2023-04-23T02:32:18;100466.19;;;6.05;100.00
71805;BME280;59654;52.216;5.616;2023-04-23T02:32:49;100469.66;;;6.07;100.00
71805;BME280;59654;52.216;5.616;2023-04-23T02:33:21;100470.47;;;6.09;100.00
71805;BME280;59654;52.216;5.616;2023-04-23T02:33:51;100463.41;;;6.10;100.00
71805;BME280;59654;52.216;5.616;2023-04-23T02:34:22;100472.22;;;6.10;100.00
71805;BME280;59654;52.216;5.616;2023-04-23T02:34:53;100466.13;;;6.08;100.00
71805;BME280;59654;52.216;5.616;2023-04-23T02:35:24;100465.25;;;6.08;100.00
71805;BME280;59654;52.216;5.616;2023-04-23T02:35:56;100460.91;;;6.05;100.00
71805;BME280;59654;52.216;5.616;2023-04-23T02:36:27;100461.81;;;6.04;100.00
71805;BME280;59654;52.216;5.616;2023-04-23T02:37:00;100460.06;;;6.03;100.00
71805;BME280;59654;52.216;5.616;2023-04-23T02:37:31;100453.91;;;6.03;100.00
71805;BME280;59654;52.216;5.616;2023-04-23T02:38:03;100456.53;;;6.03;100.00
71805;BME280;59654;52.216;5.616;2023-04-23T02:38:34;100458.34;;;6.01;100.00
71805;BME280;59654;52.216;5.616;2023-04-23T02:39:04;100460.09;;;6.02;100.00
71805;BME280;59654;52.216;5.616;2023-04-23T02:39:36;100453.97;;;6.00;100.00
71805;BME280;59654;52.216;5.616;2023-04-23T02:40:08;100458.44;;;5.98;100.00
71805;BME280;59654;52.216;5.616;2023-04-23T02:40:40;100452.22;;;5.99;100.00
71805;BME280;59654;52.216;5.616;2023-04-23T02:41:11;100451.41;;;5.97;100.00
71805;BME280;59654;52.216;5.616;2023-04-23T02:41:42;100452.22;;;5.99;100.00
71805;BME280;59654;52.216;5.616;2023-04-23T02:42:13;100450.44;;;5.99;100.00
71805;BME280;59654;52.216;5.616;2023-04-23T02:42:44;100452.22;;;5.99;100.00
71805;BME280;59654;52.216;5.616;2023-04-23T02:43:15;100446.94;;;5.99;100.00
71805;BME280;59654;52.216;5.616;2023-04-23T02:43:47;100454.88;;;5.99;100.00
71805;BME280;59654;52.216;5.616;2023-04-23T02:44:18;100450.44;;;5.99;100.00
71805;BME280;59654;52.216;5.616;2023-04-23T02:44:49;100451.34;;;5.98;100.00
71805;BME280;59654;52.216;5.616;2023-04-23T02:45:20;100447.78;;;6.01;100.00
71805;BME280;59654;52.216;5.616;2023-04-23T02:45:54;100453.03;;;6.02;100.00